Home > Products > Valid Products > TAF

000
FTUS43 KLOT 060542
TAFGYY
TAF
KGYY 060542Z 0606/0706 18005KT 6SM BR FEW250
     FM061500 20010G15KT P6SM FEW035 SCT250
     FM061900 20012G19KT P6SM FEW040 BKN250
     FM070200 20012G18KT P6SM VCSH FEW050 BKN180=



000
FTUS43 KLOT 060542
TAFMDW
TAF
KMDW 060542Z 0606/0706 19005KT P6SM FEW250
     FM061500 20011G16KT P6SM FEW035 SCT250
     FM061900 20014G23KT P6SM FEW040 BKN250
     FM070200 20012G18KT 6SM -SHRA FEW050 BKN180=



000
FTUS43 KLOT 060542
TAFDPA
TAF
KDPA 060542Z 0606/0706 19004KT 6SM BR FEW250
     FM061500 20011G16KT P6SM FEW035 SCT250
     FM061900 20014G23KT P6SM FEW040 BKN250
     FM070200 20012G18KT 6SM -SHRA FEW050 BKN180=



000
FTUS43 KLOT 060542
TAFGYY
TAF
KGYY 060542Z 0606/0706 18005KT 6SM BR FEW250
     FM061500 20010G15KT P6SM FEW035 SCT250
     FM061900 20012G19KT P6SM FEW040 BKN250
     FM070200 20012G18KT P6SM VCSH FEW050 BKN180=



000
FTUS43 KLOT 060542
TAFORD
TAF
KORD 060542Z 0606/0712 19005KT P6SM FEW250
     FM061500 20011G16KT P6SM FEW035 SCT250
     FM061900 20014G23KT P6SM FEW040 BKN250
     FM070200 20012G18KT 6SM -SHRA FEW050 BKN180
     FM070900 28010KT P6SM SCT020 SCT050 BKN120=



000
FTUS43 KLOT 060542
TAFRFD
TAF
KRFD 060542Z 0606/0706 18005KT P6SM SCT250
     FM061500 20012G17KT P6SM FEW035 BKN250
     FM061900 20014G23KT P6SM VCSH SCT040 BKN250
     FM062200 21012G19KT 6SM -SHRA VCTS BKN040CB BKN200
     FM070400 23011G15KT P6SM BKN040 BKN180=



000
FTUS43 KLOT 060542
TAFGYY
TAF
KGYY 060542Z 0606/0706 18005KT 6SM BR FEW250
     FM061500 20010G15KT P6SM FEW035 SCT250
     FM061900 20012G19KT P6SM FEW040 BKN250
     FM070200 20012G18KT P6SM VCSH FEW050 BKN180=



000
FTUS43 KLOT 060542
TAFGYY
TAF
KGYY 060542Z 0606/0706 18005KT 6SM BR FEW250
     FM061500 20010G15KT P6SM FEW035 SCT250
     FM061900 20012G19KT P6SM FEW040 BKN250
     FM070200 20012G18KT P6SM VCSH FEW050 BKN180=



000
FTUS43 KLOT 060542
TAFDPA
TAF
KDPA 060542Z 0606/0706 19004KT 6SM BR FEW250
     FM061500 20011G16KT P6SM FEW035 SCT250
     FM061900 20014G23KT P6SM FEW040 BKN250
     FM070200 20012G18KT 6SM -SHRA FEW050 BKN180=



000
FTUS43 KLOT 060542
TAFMDW
TAF
KMDW 060542Z 0606/0706 19005KT P6SM FEW250
     FM061500 20011G16KT P6SM FEW035 SCT250
     FM061900 20014G23KT P6SM FEW040 BKN250
     FM070200 20012G18KT 6SM -SHRA FEW050 BKN180=



000
FTUS43 KLOT 060542
TAFRFD
TAF
KRFD 060542Z 0606/0706 18005KT P6SM SCT250
     FM061500 20012G17KT P6SM FEW035 BKN250
     FM061900 20014G23KT P6SM VCSH SCT040 BKN250
     FM062200 21012G19KT 6SM -SHRA VCTS BKN040CB BKN200
     FM070400 23011G15KT P6SM BKN040 BKN180=



000
FTUS43 KLOT 060542
TAFORD
TAF
KORD 060542Z 0606/0712 19005KT P6SM FEW250
     FM061500 20011G16KT P6SM FEW035 SCT250
     FM061900 20014G23KT P6SM FEW040 BKN250
     FM070200 20012G18KT 6SM -SHRA FEW050 BKN180
     FM070900 28010KT P6SM SCT020 SCT050 BKN120=



000
FTUS43 KLOT 060304 AAB
TAFDPA
TAF AMD
KDPA 060304Z 0603/0624 17007KT P6SM FEW250
     FM061500 18012KT P6SM FEW025
     FM061900 20015G25KT P6SM FEW050 BKN250=



000
FTUS43 KLOT 060304 AAB
TAFRFD
TAF AMD
KRFD 060304Z 0603/0624 17007KT P6SM FEW250
     FM061500 18012KT P6SM FEW025
     FM061900 20015G25KT P6SM FEW050 BKN250
     FM062300 21014G23KT P6SM SCT050 BKN180=



000
FTUS43 KLOT 060304 AAB
TAFMDW
TAF AMD
KMDW 060304Z 0603/0624 18007KT P6SM FEW250
     FM061500 18012KT P6SM FEW025
     FM061900 20015G25KT P6SM FEW050 BKN250=



000
FTUS43 KLOT 060304 AAB
TAFDPA
TAF AMD
KDPA 060304Z 0603/0624 17007KT P6SM FEW250
     FM061500 18012KT P6SM FEW025
     FM061900 20015G25KT P6SM FEW050 BKN250=



000
FTUS43 KLOT 060304 AAB
TAFGYY
TAF AMD
KGYY 060304Z 0603/0624 17007KT P6SM FEW250
     FM061500 18012KT P6SM FEW025
     FM061900 20015G25KT P6SM FEW050 BKN250=



000
FTUS43 KLOT 060304 AAB
TAFRFD
TAF AMD
KRFD 060304Z 0603/0624 17007KT P6SM FEW250
     FM061500 18012KT P6SM FEW025
     FM061900 20015G25KT P6SM FEW050 BKN250
     FM062300 21014G23KT P6SM SCT050 BKN180=



000
FTUS43 KLOT 060304 AAB
TAFORD
TAF AMD
KORD 060304Z 0603/0706 17007KT P6SM FEW250
     FM061500 18012KT P6SM FEW025
     FM061900 20015G25KT P6SM FEW050 BKN250
     FM070100 20012G18KT P6SM FEW050 BKN180
     FM070500 21013KT P6SM SCT050 BKN120=



000
FTUS43 KLOT 060304 AAB
TAFGYY
TAF AMD
KGYY 060304Z 0603/0624 17007KT P6SM FEW250
     FM061500 18012KT P6SM FEW025
     FM061900 20015G25KT P6SM FEW050 BKN250=



000
FTUS43 KLOT 060202 AAA
TAFMDW
TAF AMD
KMDW 060202Z 0602/0624 18007KT P6SM FEW250
     FM061500 18012KT P6SM FEW025
     FM061900 20015G25KT P6SM FEW050 BKN250=



000
FTUS43 KLOT 060202 AAA
TAFDPA
TAF AMD
KDPA 060202Z 0602/0624 17007KT P6SM FEW250
     FM061500 18012KT P6SM FEW025
     FM061900 20015G25KT P6SM FEW050 BKN250=



000
FTUS43 KLOT 060202 AAA
TAFGYY
TAF AMD
KGYY 060202Z 0602/0624 17007KT P6SM FEW250
     FM061500 18012KT P6SM FEW025
     FM061900 20015G25KT P6SM FEW050 BKN250=



000
FTUS43 KLOT 060202 AAA
TAFRFD
TAF AMD
KRFD 060202Z 0602/0624 17007KT P6SM FEW250
     FM061500 18012KT P6SM FEW025
     FM061900 20015G25KT P6SM FEW050 BKN250
     FM062300 21014G23KT P6SM SCT050 BKN180=



000
FTUS43 KLOT 060202 AAA
TAFGYY
TAF AMD
KGYY 060202Z 0602/0624 17007KT P6SM FEW250
     FM061500 18012KT P6SM FEW025
     FM061900 20015G25KT P6SM FEW050 BKN250=



000
FTUS43 KLOT 060202 AAA
TAFORD
TAF AMD
KORD 060202Z 0602/0706 17007KT P6SM FEW250
     FM061500 18012KT P6SM FEW025
     FM061900 20015G25KT P6SM FEW050 BKN250
     FM070100 20012G18KT P6SM FEW050 BKN180
     FM070500 21013KT P6SM SCT050 BKN120=



000
FTUS43 KLOT 060202 AAA
TAFRFD
TAF AMD
KRFD 060202Z 0602/0624 17007KT P6SM FEW250
     FM061500 18012KT P6SM FEW025
     FM061900 20015G25KT P6SM FEW050 BKN250
     FM062300 21014G23KT P6SM SCT050 BKN180=



000
FTUS43 KLOT 052332
TAFORD
TAF
KORD 052332Z 0600/0706 17007KT P6SM FEW250
     FM061500 18012KT P6SM FEW025
     FM061900 20015G25KT P6SM FEW050 BKN250
     FM070100 20012G18KT P6SM FEW050 BKN180
     FM070500 21013KT P6SM SCT050 BKN120=



000
FTUS43 KLOT 052332
TAFMDW
TAF
KMDW 052332Z 0600/0624 18007KT P6SM FEW250
     FM061500 18012KT P6SM FEW025
     FM061900 20015G25KT P6SM FEW050 BKN250=



000
FTUS43 KLOT 052332
TAFGYY
TAF
KGYY 052332Z 0600/0624 17007KT P6SM FEW250
     FM061500 18012KT P6SM FEW025
     FM061900 20015G25KT P6SM FEW050 BKN250=



000
FTUS43 KLOT 052332
TAFRFD
TAF
KRFD 052332Z 0600/0624 17007KT P6SM FEW250
     FM061500 18012KT P6SM FEW025
     FM061900 20015G25KT P6SM FEW050 BKN250=



000
FTUS43 KLOT 052332
TAFDPA
TAF
KDPA 052332Z 0600/0624 17007KT P6SM FEW250
     FM061500 18012KT P6SM FEW025
     FM061900 20015G25KT P6SM FEW050 BKN250=



000
FTUS43 KLOT 052332
TAFDPA
TAF
KDPA 052332Z 0600/0624 17007KT P6SM FEW250
     FM061500 18012KT P6SM FEW025
     FM061900 20015G25KT P6SM FEW050 BKN250=



000
FTUS43 KLOT 052332
TAFGYY
TAF
KGYY 052332Z 0600/0624 17007KT P6SM FEW250
     FM061500 18012KT P6SM FEW025
     FM061900 20015G25KT P6SM FEW050 BKN250=



000
FTUS43 KLOT 052332
TAFRFD
TAF
KRFD 052332Z 0600/0624 17007KT P6SM FEW250
     FM061500 18012KT P6SM FEW025
     FM061900 20015G25KT P6SM FEW050 BKN250=



000
FTUS43 KLOT 052332
TAFORD
TAF
KORD 052332Z 0600/0706 17007KT P6SM FEW250
     FM061500 18012KT P6SM FEW025
     FM061900 20015G25KT P6SM FEW050 BKN250
     FM070100 20012G18KT P6SM FEW050 BKN180
     FM070500 21013KT P6SM SCT050 BKN120=



000
FTUS43 KLOT 052332
TAFMDW
TAF
KMDW 052332Z 0600/0624 18007KT P6SM FEW250
     FM061500 18012KT P6SM FEW025
     FM061900 20015G25KT P6SM FEW050 BKN250=



000
FTUS43 KLOT 052332
TAFGYY
TAF
KGYY 052332Z 0600/0624 17007KT P6SM FEW250
     FM061500 18012KT P6SM FEW025
     FM061900 20015G25KT P6SM FEW050 BKN250=



000
FTUS43 KLOT 052332
TAFGYY
TAF
KGYY 052332Z 0600/0624 17007KT P6SM FEW250
     FM061500 18012KT P6SM FEW025
     FM061900 20015G25KT P6SM FEW050 BKN250=



000
FTUS43 KLOT 052158 AAB
TAFRFD
TAF AMD
KRFD 052158Z 0522/0618 19009KT P6SM FEW040
     FM060100 16005KT P6SM FEW250
     FM061500 19013KT P6SM FEW025=



000
FTUS43 KLOT 052158 AAB
TAFGYY
TAF AMD
KGYY 052158Z 0522/0618 14007KT P6SM SCT050
     FM060100 16005KT P6SM FEW250
     FM061500 18011KT P6SM FEW025=



000
FTUS43 KLOT 052158 AAB
TAFGYY
TAF AMD
KGYY 052158Z 0522/0618 14007KT P6SM SCT050
     FM060100 16005KT P6SM FEW250
     FM061500 18011KT P6SM FEW025=



000
FTUS43 KLOT 052158 AAB
TAFMDW
TAF AMD
KMDW 052158Z 0522/0618 18009KT P6SM FEW050
     FM052300 18005KT P6SM FEW250
     FM061500 19012KT P6SM FEW025=



000
FTUS43 KLOT 052158 AAB
TAFORD
TAF AMD
KORD 052158Z 0522/0624 16009KT P6SM FEW050
     FM052300 18005KT P6SM FEW250
     FM061500 18012KT P6SM FEW025
     FM061900 20015G25KT P6SM SCT050 BKN250=



000
FTUS43 KLOT 052158 AAB
TAFDPA
TAF AMD
KDPA 052158Z 0522/0618 18009KT P6SM FEW050
     FM052300 18005KT P6SM FEW250
     FM061500 18012KT P6SM FEW025=



000
FTUS43 KLOT 051943 AAA
TAFMDW
TAF AMD
KMDW 051943Z 0520/0618 16009KT P6SM SCT050
     FM052300 18005KT P6SM FEW250
     FM061500 19012KT P6SM FEW025=



000
FTUS43 KLOT 051943 AAA
TAFMDW
TAF AMD
KMDW 051943Z 0520/0618 16009KT P6SM SCT050
     FM052300 18005KT P6SM FEW250
     FM061500 19012KT P6SM FEW025=



000
FTUS43 KLOT 051943 AAA
TAFRFD
TAF AMD
KRFD 051943Z 0520/0618 20009KT P6SM SCT040
     FM060100 16005KT P6SM FEW250
     FM061500 19013KT P6SM FEW025=



000
FTUS43 KLOT 051943 AAA
TAFGYY
TAF AMD
KGYY 051943Z 0520/0618 11007KT P6SM SCT050
     FM060100 16005KT P6SM FEW250
     FM061500 18011KT P6SM FEW025=



000
FTUS43 KLOT 051943 AAA
TAFGYY
TAF AMD
KGYY 051943Z 0520/0618 11007KT P6SM SCT050
     FM060100 16005KT P6SM FEW250
     FM061500 18011KT P6SM FEW025=



000
FTUS43 KLOT 051943 AAA
TAFDPA
TAF AMD
KDPA 051943Z 0520/0618 16009KT P6SM SCT050
     FM052300 18005KT P6SM FEW250
     FM061500 18012KT P6SM FEW025=



000
FTUS43 KLOT 051943 AAA
TAFORD
TAF AMD
KORD 051943Z 0520/0624 16009KT P6SM SCT050
     FM052300 18005KT P6SM FEW250
     FM061500 18012KT P6SM FEW025
     FM061900 20015G25KT P6SM SCT050 BKN250=



000
FTUS43 KLOT 051943 AAA
TAFGYY
TAF AMD
KGYY 051943Z 0520/0618 11007KT P6SM SCT050
     FM060100 16005KT P6SM FEW250
     FM061500 18011KT P6SM FEW025=



000
FTUS43 KLOT 051943 AAA
TAFDPA
TAF AMD
KDPA 051943Z 0520/0618 16009KT P6SM SCT050
     FM052300 18005KT P6SM FEW250
     FM061500 18012KT P6SM FEW025=



000
FTUS43 KLOT 051943 AAA
TAFGYY
TAF AMD
KGYY 051943Z 0520/0618 11007KT P6SM SCT050
     FM060100 16005KT P6SM FEW250
     FM061500 18011KT P6SM FEW025=



000
FTUS43 KLOT 051943 AAA
TAFRFD
TAF AMD
KRFD 051943Z 0520/0618 20009KT P6SM SCT040
     FM060100 16005KT P6SM FEW250
     FM061500 19013KT P6SM FEW025=



000
FTUS43 KLOT 051943 AAA
TAFORD
TAF AMD
KORD 051943Z 0520/0624 16009KT P6SM SCT050
     FM052300 18005KT P6SM FEW250
     FM061500 18012KT P6SM FEW025
     FM061900 20015G25KT P6SM SCT050 BKN250=



000
FTUS43 KLOT 051722
TAFORD
TAF
KORD 051722Z 0518/0624 18009KT P6SM SCT050
     FM060100 17005KT P6SM FEW250
     FM061500 18012KT P6SM FEW025
     FM061900 20015G25KT P6SM SCT050 BKN250=



000
FTUS43 KLOT 051722
TAFMDW
TAF
KMDW 051722Z 0518/0618 18009KT P6SM SCT050
     FM060100 17005KT P6SM FEW250
     FM061500 19012KT P6SM FEW025=



000
FTUS43 KLOT 051722
TAFGYY
TAF
KGYY 051722Z 0518/0618 13008KT P6SM SCT050
     FM060100 16005KT P6SM FEW250
     FM061500 18011KT P6SM FEW025=



000
FTUS43 KLOT 051722
TAFGYY
TAF
KGYY 051722Z 0518/0618 13008KT P6SM SCT050
     FM060100 16005KT P6SM FEW250
     FM061500 18011KT P6SM FEW025=



000
FTUS43 KLOT 051722
TAFRFD
TAF
KRFD 051722Z 0518/0618 20009KT P6SM SCT050
     FM060100 16005KT P6SM FEW250
     FM061500 19013KT P6SM FEW025=



000
FTUS43 KLOT 051722
TAFDPA
TAF
KDPA 051722Z 0518/0618 19009KT P6SM SCT050
     FM060100 17004KT P6SM FEW250
     FM061500 18012KT P6SM FEW025=



000
FTUS43 KLOT 051722
TAFGYY
TAF
KGYY 051722Z 0518/0618 13008KT P6SM SCT050
     FM060100 16005KT P6SM FEW250
     FM061500 18011KT P6SM FEW025=



000
FTUS43 KLOT 051722
TAFGYY
TAF
KGYY 051722Z 0518/0618 13008KT P6SM SCT050
     FM060100 16005KT P6SM FEW250
     FM061500 18011KT P6SM FEW025=



000
FTUS43 KLOT 051722
TAFORD
TAF
KORD 051722Z 0518/0624 18009KT P6SM SCT050
     FM060100 17005KT P6SM FEW250
     FM061500 18012KT P6SM FEW025
     FM061900 20015G25KT P6SM SCT050 BKN250=



000
FTUS43 KLOT 051722
TAFMDW
TAF
KMDW 051722Z 0518/0618 18009KT P6SM SCT050
     FM060100 17005KT P6SM FEW250
     FM061500 19012KT P6SM FEW025=



000
FTUS43 KLOT 051722
TAFDPA
TAF
KDPA 051722Z 0518/0618 19009KT P6SM SCT050
     FM060100 17004KT P6SM FEW250
     FM061500 18012KT P6SM FEW025=



000
FTUS43 KLOT 051722
TAFRFD
TAF
KRFD 051722Z 0518/0618 20009KT P6SM SCT050
     FM060100 16005KT P6SM FEW250
     FM061500 19013KT P6SM FEW025=



000
FTUS43 KLOT 051551 AAB
TAFMDW
TAF AMD
KMDW 051551Z 0516/0612 22003KT P6SM SCT045
     FM051700 17009KT P6SM SCT050
     FM060100 17005KT P6SM FEW250=



000
FTUS43 KLOT 051551 AAB
TAFORD
TAF AMD
KORD 051551Z 0516/0618 21005KT P6SM FEW040
     FM051700 17009KT P6SM SCT050
     FM060100 17005KT P6SM FEW250=



000
FTUS43 KLOT 051551 AAB
TAFGYY
TAF AMD
KGYY 051551Z 0516/0612 VRB03KT P6SM FEW045
     FM051700 14008KT P6SM SCT050
     FM060100 16005KT P6SM FEW250=



000
FTUS43 KLOT 051551 AAB
TAFRFD
TAF AMD
KRFD 051551Z 0516/0612 20005KT P6SM FEW035
     FM051700 19009KT P6SM SCT050
     FM060100 16005KT P6SM FEW250=



000
FTUS43 KLOT 051551 AAB
TAFDPA
TAF AMD
KDPA 051551Z 0516/0612 21005KT P6SM FEW040
     FM051700 17009KT P6SM SCT050
     FM060100 17004KT P6SM FEW250=



000
FTUS43 KLOT 051551 AAB
TAFGYY
TAF AMD
KGYY 051551Z 0516/0612 VRB03KT P6SM FEW045
     FM051700 14008KT P6SM SCT050
     FM060100 16005KT P6SM FEW250=



000
FTUS43 KLOT 051402 AAA
TAFRFD
TAF AMD
KRFD 051402Z 0514/0612 20003KT 6SM BR FEW045
     FM051700 19009KT P6SM FEW060
     FM060100 16005KT P6SM FEW250=



000
FTUS43 KLOT 051402 AAA
TAFGYY
TAF AMD
KGYY 051402Z 0514/0612 VRB03KT 6SM BR FEW045
      TEMPO 0514/0516 4SM BR
     FM051600 15008KT P6SM FEW060
     FM060100 16005KT P6SM FEW250=



000
FTUS43 KLOT 051402 AAA
TAFORD
TAF AMD
KORD 051402Z 0514/0618 20003KT 6SM BR FEW045
      TEMPO 0514/0516 5SM BR
     FM051700 17009KT P6SM FEW060
     FM060100 17005KT P6SM FEW250=



000
FTUS43 KLOT 051402 AAA
TAFDPA
TAF AMD
KDPA 051402Z 0514/0612 20003KT 6SM BR FEW045
      TEMPO 0514/0516 5SM BR
     FM051700 17009KT P6SM FEW060
     FM060100 17004KT P6SM FEW250=



000
FTUS43 KLOT 051402 AAA
TAFGYY
TAF AMD
KGYY 051402Z 0514/0612 VRB03KT 6SM BR FEW045
      TEMPO 0514/0516 4SM BR
     FM051600 15008KT P6SM FEW060
     FM060100 16005KT P6SM FEW250=



000
FTUS43 KLOT 051402 AAA
TAFMDW
TAF AMD
KMDW 051402Z 0514/0612 20003KT 6SM BR FEW045
     FM051700 17009KT P6SM FEW060
     FM060100 17005KT P6SM FEW250=



000
FTUS43 KLOT 051135
TAFMDW
TAF
KMDW 051135Z 0512/0612 21003KT 6SM BR FEW250
      TEMPO 0512/0514 3SM BR
     FM051700 18009KT P6SM FEW060
     FM060100 17005KT P6SM FEW250=



000
FTUS43 KLOT 051135
TAFGYY
TAF
KGYY 051135Z 0512/0612 VRB03KT 6SM BR FEW250
      TEMPO 0512/0514 3SM BR FEW007
     FM051600 17008KT P6SM FEW060
     FM060100 16005KT P6SM FEW250=



000
FTUS43 KLOT 051135
TAFDPA
TAF
KDPA 051135Z 0512/0612 20003KT 6SM BR FEW250
      TEMPO 0512/0514 4SM BR
     FM051700 18009KT P6SM FEW060
     FM060100 17004KT P6SM FEW250=



000
FTUS43 KLOT 051135
TAFORD
TAF
KORD 051135Z 0512/0618 21003KT 6SM BR FEW250
      TEMPO 0512/0514 2SM BR
     FM051700 18009KT P6SM FEW060
     FM060100 17005KT P6SM FEW250=



000
FTUS43 KLOT 051135
TAFRFD
TAF
KRFD 051135Z 0512/0612 20003KT 6SM BR FEW250
     FM051700 18009KT P6SM FEW060
     FM060100 16005KT P6SM FEW250=



000
FTUS43 KLOT 051135
TAFGYY
TAF
KGYY 051135Z 0512/0612 VRB03KT 6SM BR FEW250
      TEMPO 0512/0514 3SM BR FEW007
     FM051600 17008KT P6SM FEW060
     FM060100 16005KT P6SM FEW250=



000
FTUS43 KLOT 051135
TAFORD
TAF
KORD 051135Z 0512/0618 21003KT 6SM BR FEW250
      TEMPO 0512/0514 2SM BR
     FM051700 18009KT P6SM FEW060
     FM060100 17005KT P6SM FEW250=



000
FTUS43 KLOT 051135
TAFRFD
TAF
KRFD 051135Z 0512/0612 20003KT 6SM BR FEW250
     FM051700 18009KT P6SM FEW060
     FM060100 16005KT P6SM FEW250=



000
FTUS43 KLOT 051135
TAFDPA
TAF
KDPA 051135Z 0512/0612 20003KT 6SM BR FEW250
      TEMPO 0512/0514 4SM BR
     FM051700 18009KT P6SM FEW060
     FM060100 17004KT P6SM FEW250=



000
FTUS43 KLOT 051135
TAFMDW
TAF
KMDW 051135Z 0512/0612 21003KT 6SM BR FEW250
      TEMPO 0512/0514 3SM BR
     FM051700 18009KT P6SM FEW060
     FM060100 17005KT P6SM FEW250=



000
FTUS43 KLOT 051135
TAFGYY
TAF
KGYY 051135Z 0512/0612 VRB03KT 6SM BR FEW250
      TEMPO 0512/0514 3SM BR FEW007
     FM051600 17008KT P6SM FEW060
     FM060100 16005KT P6SM FEW250=



000
FTUS43 KLOT 051135
TAFGYY
TAF
KGYY 051135Z 0512/0612 VRB03KT 6SM BR FEW250
      TEMPO 0512/0514 3SM BR FEW007
     FM051600 17008KT P6SM FEW060
     FM060100 16005KT P6SM FEW250=



000
FTUS43 KLOT 050858 AAA
TAFGYY
TAF AMD
KGYY 050858Z 0509/0606 VRB03KT 3SM BR FEW250
      TEMPO 0509/0512 1SM FU BKN007
     FM051700 17008KT P6SM FEW060
     FM060100 16005KT P6SM FEW250=



000
FTUS43 KLOT 050858 AAA
TAFRFD
TAF AMD
KRFD 050858Z 0509/0606 21003KT 6SM BR FEW250
     FM051700 18009KT P6SM FEW060
     FM060100 16005KT P6SM FEW250=



000
FTUS43 KLOT 050858 AAA
TAFMDW
TAF AMD
KMDW 050858Z 0509/0606 21003KT P6SM FEW250
      TEMPO 0509/0512 2SM FU FEW007
     FM051700 18009KT P6SM FEW060
     FM060100 17005KT P6SM FEW250=



000
FTUS43 KLOT 050858 AAA
TAFDPA
TAF AMD
KDPA 050858Z 0509/0606 21003KT P6SM FEW250
      TEMPO 0509/0512 3SM BR
     FM051700 18009KT P6SM FEW060
     FM060100 17004KT P6SM FEW250=



000
FTUS43 KLOT 050858 AAA
TAFORD
TAF AMD
KORD 050858Z 0509/0612 21003KT P6SM FEW250
      TEMPO 0509/0512 2SM FU FEW007
     FM051700 18009KT P6SM FEW060
     FM060100 17005KT P6SM FEW250=



000
FTUS43 KLOT 050858 AAA
TAFGYY
TAF AMD
KGYY 050858Z 0509/0606 VRB03KT 3SM BR FEW250
      TEMPO 0509/0512 1SM FU BKN007
     FM051700 17008KT P6SM FEW060
     FM060100 16005KT P6SM FEW250=



000
FTUS43 KLOT 050858 AAA
TAFMDW
TAF AMD
KMDW 050858Z 0509/0606 21003KT P6SM FEW250
      TEMPO 0509/0512 2SM FU FEW007
     FM051700 18009KT P6SM FEW060
     FM060100 17005KT P6SM FEW250=



000
FTUS43 KLOT 050858 AAA
TAFORD
TAF AMD
KORD 050858Z 0509/0612 21003KT P6SM FEW250
      TEMPO 0509/0512 2SM FU FEW007
     FM051700 18009KT P6SM FEW060
     FM060100 17005KT P6SM FEW250=



000
FTUS43 KLOT 050858 AAA
TAFGYY
TAF AMD
KGYY 050858Z 0509/0606 VRB03KT 3SM BR FEW250
      TEMPO 0509/0512 1SM FU BKN007
     FM051700 17008KT P6SM FEW060
     FM060100 16005KT P6SM FEW250=



000
FTUS43 KLOT 050858 AAA
TAFDPA
TAF AMD
KDPA 050858Z 0509/0606 21003KT P6SM FEW250
      TEMPO 0509/0512 3SM BR
     FM051700 18009KT P6SM FEW060
     FM060100 17004KT P6SM FEW250=



000
FTUS43 KLOT 050858 AAA
TAFRFD
TAF AMD
KRFD 050858Z 0509/0606 21003KT 6SM BR FEW250
     FM051700 18009KT P6SM FEW060
     FM060100 16005KT P6SM FEW250=



000
FTUS43 KLOT 050858 AAA
TAFGYY
TAF AMD
KGYY 050858Z 0509/0606 VRB03KT 3SM BR FEW250
      TEMPO 0509/0512 1SM FU BKN007
     FM051700 17008KT P6SM FEW060
     FM060100 16005KT P6SM FEW250=



000
FTUS43 KLOT 050541 CCA
TAFGYY
TAF COR
KGYY 050541Z 0506/0606 VRB03KT 3SM BR FEW250
      TEMPO 0506/0509 1SM FU BKN007
     FM051700 17008KT P6SM FEW060
     FM060100 16005KT P6SM FEW250=



000
FTUS43 KLOT 050541 CCA
TAFGYY
TAF COR
KGYY 050541Z 0506/0606 VRB03KT 3SM BR FEW250
      TEMPO 0506/0509 1SM FU BKN007
     FM051700 17008KT P6SM FEW060
     FM060100 16005KT P6SM FEW250=



000
FTUS43 KLOT 050539
TAFORD
TAF
KORD 050539Z 0506/0612 21003KT P6SM FEW250
      TEMPO 0506/0509 3SM FU FEW007
     FM051700 18009KT P6SM FEW060
     FM060100 17005KT P6SM FEW250=



000
FTUS43 KLOT 050539
TAFMDW
TAF
KMDW 050539Z 0506/0606 21003KT P6SM FEW250
      TEMPO 0506/0509 3SM FU FEW007
     FM051700 18009KT P6SM FEW060
     FM060100 17005KT P6SM FEW250=



000
FTUS43 KLOT 050539
TAFRFD
TAF
KRFD 050539Z 0506/0606 21003KT P6SM FEW250
     FM051700 18009KT P6SM FEW060
     FM060100 16005KT P6SM FEW250=



000
FTUS43 KLOT 050539
TAFGYY
TAF
KGYY 050539Z 0506/0606 VRB03KT 3SM BR FEW250
      TEMPO 0506/0509 1SM FU FEW007
     FM051700 17008KT P6SM FEW060
     FM060100 16005KT P6SM FEW250=



000
FTUS43 KLOT 050539
TAFDPA
TAF
KDPA 050539Z 0506/0606 21003KT P6SM FEW250
     FM051700 18009KT P6SM FEW060
     FM060100 17004KT P6SM FEW250=



000
FTUS43 KLOT 050539
TAFGYY
TAF
KGYY 050539Z 0506/0606 VRB03KT 3SM BR FEW250
      TEMPO 0506/0509 1SM FU FEW007
     FM051700 17008KT P6SM FEW060
     FM060100 16005KT P6SM FEW250=



000
FTUS43 KLOT 050345 AAC
TAFGYY
TAF AMD
KGYY 050345Z 0504/0524 VRB04KT P6SM FEW250
      TEMPO 0504/0506 1 1/2SM FU FEW010
     FM051700 17008KT P6SM FEW060=



000
FTUS43 KLOT 050345 CCA
TAFGYY
TAF COR
KGYY 050345Z 0504/0524 VRB04KT P6SM FEW250
      TEMPO 0504/0506 1 1/2SM FU VV007
     FM051700 17008KT P6SM FEW060=



000
FTUS43 KLOT 050345 CCA
TAFGYY
TAF COR
KGYY 050345Z 0504/0524 VRB04KT P6SM FEW250
      TEMPO 0504/0506 1 1/2SM FU VV007
     FM051700 17008KT P6SM FEW060=



000
FTUS43 KLOT 050326 AAB
TAFGYY
TAF AMD
KGYY 050326Z 0503/0524 VRB04KT P6SM FEW250
      TEMPO 0503/0506 3SM FU FEW010
     FM051700 17008KT P6SM FEW060=



000
FTUS43 KLOT 050326 AAB
TAFGYY
TAF AMD
KGYY 050326Z 0503/0524 VRB04KT P6SM FEW250
      TEMPO 0503/0506 3SM FU FEW010
     FM051700 17008KT P6SM FEW060=



000
FTUS43 KLOT 050326 AAB
TAFGYY
TAF AMD
KGYY 050326Z 0503/0524 VRB04KT P6SM FEW250
      TEMPO 0503/0506 3SM FU FEW010
     FM051700 17008KT P6SM FEW060=



000
FTUS43 KLOT 050301 AAA
TAFGYY
TAF AMD
KGYY 050301Z 0503/0524 VRB04KT P6SM FEW250
     FM051700 17008KT P6SM FEW060=



000
FTUS43 KLOT 050301 AAA
TAFRFD
TAF AMD
KRFD 050301Z 0503/0524 17003KT P6SM FEW250
     FM051700 19009KT P6SM FEW045=



000
FTUS43 KLOT 050301 AAA
TAFORD
TAF AMD
KORD 050301Z 0503/0606 15005KT P6SM FEW250
      TEMPO 0503/0505 5SM FU FEW007
     FM050700 20003KT P6SM FEW250
     FM051700 18009KT P6SM FEW060=



000
FTUS43 KLOT 050301 AAA
TAFGYY
TAF AMD
KGYY 050301Z 0503/0524 VRB04KT P6SM FEW250
     FM051700 17008KT P6SM FEW060=



000
FTUS43 KLOT 050301 AAA
TAFMDW
TAF AMD
KMDW 050301Z 0503/0524 14005KT P6SM FEW250
      TEMPO 0503/0505 5SM FU FEW007
     FM050700 20003KT P6SM FEW250
     FM051700 18008KT P6SM FEW060=



000
FTUS43 KLOT 050301 AAA
TAFDPA
TAF AMD
KDPA 050301Z 0503/0524 VRB04KT P6SM FEW250
     FM051700 19008KT P6SM FEW060=



000
FTUS43 KLOT 042333
TAFGYY
TAF
KGYY 042333Z 0500/0524 07007KT P6SM FEW060
     FM050200 15003KT P6SM FEW250
     FM051700 17008KT P6SM FEW060=



000
FTUS43 KLOT 042333
TAFRFD
TAF
KRFD 042333Z 0500/0524 24004KT P6SM FEW250
     FM051700 19009KT P6SM FEW045=



000
FTUS43 KLOT 042333
TAFGYY
TAF
KGYY 042333Z 0500/0524 07007KT P6SM FEW060
     FM050200 15003KT P6SM FEW250
     FM051700 17008KT P6SM FEW060=



000
FTUS43 KLOT 042333
TAFORD
TAF
KORD 042333Z 0500/0606 25005KT P6SM FEW060
     FM050100 10006KT P6SM FEW250
     FM050300 17003KT P6SM FEW250
     FM051700 18009KT P6SM FEW060=



000
FTUS43 KLOT 042333
TAFGYY
TAF
KGYY 042333Z 0500/0524 07007KT P6SM FEW060
     FM050200 15003KT P6SM FEW250
     FM051700 17008KT P6SM FEW060=



000
FTUS43 KLOT 042333
TAFMDW
TAF
KMDW 042333Z 0500/0524 08006KT P6SM FEW250
     FM050300 17003KT P6SM FEW250
     FM051700 18008KT P6SM FEW060=



000
FTUS43 KLOT 042333
TAFRFD
TAF
KRFD 042333Z 0500/0524 24004KT P6SM FEW250
     FM051700 19009KT P6SM FEW045=



000
FTUS43 KLOT 042333
TAFMDW
TAF
KMDW 042333Z 0500/0524 08006KT P6SM FEW250
     FM050300 17003KT P6SM FEW250
     FM051700 18008KT P6SM FEW060=



000
FTUS43 KLOT 042333
TAFORD
TAF
KORD 042333Z 0500/0606 25005KT P6SM FEW060
     FM050100 10006KT P6SM FEW250
     FM050300 17003KT P6SM FEW250
     FM051700 18009KT P6SM FEW060=



000
FTUS43 KLOT 042333
TAFDPA
TAF
KDPA 042333Z 0500/0524 23004KT P6SM FEW250
     FM051700 19008KT P6SM FEW060=



000
FTUS43 KLOT 042333
TAFGYY
TAF
KGYY 042333Z 0500/0524 07007KT P6SM FEW060
     FM050200 15003KT P6SM FEW250
     FM051700 17008KT P6SM FEW060=



000
FTUS43 KLOT 042333
TAFDPA
TAF
KDPA 042333Z 0500/0524 23004KT P6SM FEW250
     FM051700 19008KT P6SM FEW060=



000
FTUS43 KLOT 042203 AAC
TAFDPA
TAF AMD
KDPA 042203Z 0422/0518 23006KT P6SM FEW060
     FM051700 19008KT P6SM FEW250=



000
FTUS43 KLOT 042203 AAC
TAFRFD
TAF AMD
KRFD 042203Z 0422/0518 25004KT P6SM SCT045
     FM051700 19009KT P6SM FEW250=



000
FTUS43 KLOT 042203 AAC
TAFGYY
TAF AMD
KGYY 042203Z 0422/0518 04007KT P6SM FEW060
     FM050200 15003KT P6SM FEW250=



000
FTUS43 KLOT 042203 AAC
TAFGYY
TAF AMD
KGYY 042203Z 0422/0518 04007KT P6SM FEW060
     FM050200 15003KT P6SM FEW250=



000
FTUS43 KLOT 042203 AAC
TAFORD
TAF AMD
KORD 042203Z 0422/0524 25006KT P6SM FEW060
     FM042300 10008KT P6SM FEW060
     FM050200 17003KT P6SM FEW250
     FM051700 18008KT P6SM FEW250=



000
FTUS43 KLOT 042203 AAC
TAFMDW
TAF AMD
KMDW 042203Z 0422/0518 25007KT P6SM FEW060
     FM042300 09008KT P6SM FEW060
     FM050200 17003KT P6SM FEW250
     FM051700 18008KT P6SM FEW250=



000
FTUS43 KLOT 042123 AAB
TAFRFD
TAF AMD
KRFD 042123Z 0421/0518 23004KT P6SM SCT045
     FM051700 19009KT P6SM FEW250=



000
FTUS43 KLOT 042123 AAB
TAFORD
TAF AMD
KORD 042123Z 0421/0524 VRB04KT P6SM FEW060
     FM042300 10008KT P6SM FEW060
     FM050200 17003KT P6SM FEW250
     FM051700 18008KT P6SM FEW250=



000
FTUS43 KLOT 042123 AAB
TAFGYY
TAF AMD
KGYY 042123Z 0421/0518 04007KT P6SM FEW060
     FM050200 15003KT P6SM FEW250=



000
FTUS43 KLOT 042123 AAB
TAFMDW
TAF AMD
KMDW 042123Z 0421/0518 26006KT P6SM FEW060
     FM042300 09008KT P6SM FEW060
     FM050200 17003KT P6SM FEW250
     FM051700 18008KT P6SM FEW250=



000
FTUS43 KLOT 042123 AAB
TAFDPA
TAF AMD
KDPA 042123Z 0421/0518 22006KT P6SM FEW060
     FM051700 19008KT P6SM FEW250=



000
FTUS43 KLOT 042123 AAB
TAFGYY
TAF AMD
KGYY 042123Z 0421/0518 04007KT P6SM FEW060
     FM050200 15003KT P6SM FEW250=



000
FTUS43 KLOT 041958 CCC
TAFORD
TAF COR
KORD 041958Z 0420/0524 VRB04KT P6SM SCT050
     FM042030 10008KT P6SM SCT050
     FM050200 17003KT P6SM FEW250
     FM051700 18008KT P6SM FEW250=



000
FTUS43 KLOT 041958 CCC
TAFORD
TAF COR
KORD 041958Z 0420/0524 VRB04KT P6SM SCT050
     FM042030 10008KT P6SM SCT050
     FM050200 17003KT P6SM FEW250
     FM051700 18008KT P6SM FEW250=



000
FTUS43 KLOT 041957 CCB
TAFORD
TAF COR
KORD 041957Z 0420/0524 VRB04KT P6SM SCT050
     FM042015 10008KT P6SM SCT050
     FM050200 17003KT P6SM FEW250
     FM051700 18008KT P6SM FEW250=



000
FTUS43 KLOT 041951 AAA
TAFRFD
TAF AMD
KRFD 041951Z 0420/0518 23004KT P6SM SCT045
     FM051700 19009KT P6SM FEW250=



000
FTUS43 KLOT 041951 AAA
TAFGYY
TAF AMD
KGYY 041951Z 0420/0518 06008KT P6SM SCT050
     FM050200 15003KT P6SM FEW250=



000
FTUS43 KLOT 041951 AAA
TAFGYY
TAF AMD
KGYY 041951Z 0420/0518 06008KT P6SM SCT050
     FM050200 15003KT P6SM FEW250=



000
FTUS43 KLOT 041951 AAA
TAFDPA
TAF AMD
KDPA 041951Z 0420/0518 22006KT P6SM FEW050
     FM051700 19008KT P6SM FEW250=



000
FTUS43 KLOT 041951 AAA
TAFMDW
TAF AMD
KMDW 041951Z 0420/0518 26006KT P6SM FEW050
     FM042030 09008KT P6SM FEW050
     FM050200 17003KT P6SM FEW250
     FM051700 18008KT P6SM FEW250=



000
FTUS43 KLOT 041951 AAA
TAFORD
TAF AMD
KORD 041951Z 0420/0524 VRB04KT P6SM FEW050
     FM042015 10008KT P6SM FEW050
     FM050200 17003KT P6SM FEW250
     FM051700 18008KT P6SM FEW250=



000
FTUS43 KLOT 041752 CCA
TAFORD
TAF COR
KORD 041752Z 0418/0524 28004KT P6SM FEW050
     FM042000 10008KT P6SM FEW050
     FM050200 17003KT P6SM FEW250
     FM051700 18008KT P6SM FEW250=



000
FTUS43 KLOT 041751 CCA
TAFDPA
TAF COR
KDPA 041751Z 0418/0518 19003KT P6SM FEW050
     FM051700 19008KT P6SM FEW250=



000
FTUS43 KLOT 041724
TAFDPA
TAF
KDPA 041724Z 0418/0518 19003KT P6SM FEW250
     FM051700 19008KT P6SM FEW250=



000
FTUS43 KLOT 041724
TAFORD
TAF
KORD 041724Z 0418/0524 28004KT P6SM SKC
     FM042000 10008KT P6SM FEW050
     FM050200 17003KT P6SM FEW250
     FM051700 18008KT P6SM FEW250=



000
FTUS43 KLOT 041724
TAFRFD
TAF
KRFD 041724Z 0418/0518 21004KT P6SM FEW045 FEW250
     FM051700 19009KT P6SM FEW250=



000
FTUS43 KLOT 041724
TAFGYY
TAF
KGYY 041724Z 0418/0518 06007KT P6SM FEW050
     FM050200 15003KT P6SM FEW250=



000
FTUS43 KLOT 041724
TAFGYY
TAF
KGYY 041724Z 0418/0518 06007KT P6SM FEW050
     FM050200 15003KT P6SM FEW250=



000
FTUS43 KLOT 041724
TAFMDW
TAF
KMDW 041724Z 0418/0518 27004KT P6SM FEW050
     FM041830 09008KT P6SM FEW050
     FM050200 17003KT P6SM FEW250
     FM051700 18008KT P6SM FEW250=



000
FTUS43 KLOT 041604 AAB
TAFRFD
TAF AMD
KRFD 041604Z 0416/0512 VRB03KT P6SM SKC
     FM041800 26005KT P6SM FEW045 SCT250
     FM050100 19003KT P6SM FEW250=



000
FTUS43 KLOT 041604 AAB
TAFORD
TAF AMD
KORD 041604Z 0416/0518 30003KT P6SM SKC
     FM042000 10008KT P6SM FEW050 SCT250
     FM050100 19003KT P6SM FEW250=



000
FTUS43 KLOT 041604 AAB
TAFGYY
TAF AMD
KGYY 041604Z 0416/0512 06007KT P6SM FEW050
     FM050100 13003KT P6SM FEW250=



000
FTUS43 KLOT 041604 AAB
TAFGYY
TAF AMD
KGYY 041604Z 0416/0512 06007KT P6SM FEW050
     FM050100 13003KT P6SM FEW250=



000
FTUS43 KLOT 041604 AAB
TAFMDW
TAF AMD
KMDW 041604Z 0416/0512 31004KT P6SM SKC
     FM042000 09008KT P6SM FEW050 SCT250
     FM050100 19003KT P6SM FEW250=



000
FTUS43 KLOT 041604 AAB
TAFDPA
TAF AMD
KDPA 041604Z 0416/0512 30004KT P6SM SKC
     FM050100 19003KT P6SM FEW250=



000
FTUS43 KLOT 041604 AAB
TAFDPA
TAF AMD
KDPA 041604Z 0416/0512 30004KT P6SM SKC
     FM050100 19003KT P6SM FEW250=



000
FTUS43 KLOT 041400 AAA
TAFGYY
TAF AMD
KGYY 041400Z 0414/0512 VRB03KT 5SM HZ SKC
     FM041500 VRB03KT P6SM SKC
     FM041900 06007KT P6SM FEW050 SCT250
     FM050100 13003KT P6SM FEW250=



000
FTUS43 KLOT 041400 AAA
TAFMDW
TAF AMD
KMDW 041400Z 0414/0512 30003KT P6SM SKC
     FM042000 09008KT P6SM FEW050 SCT250
     FM050100 19003KT P6SM FEW250=



000
FTUS43 KLOT 041400 AAA
TAFDPA
TAF AMD
KDPA 041400Z 0414/0512 30004KT P6SM SKC
     FM050100 19003KT P6SM FEW250=



000
FTUS43 KLOT 041400 AAA
TAFORD
TAF AMD
KORD 041400Z 0414/0518 30003KT P6SM SKC
     FM042000 10008KT P6SM FEW050 SCT250
     FM050100 19003KT P6SM FEW250=



000
FTUS43 KLOT 041400 AAA
TAFDPA
TAF AMD
KDPA 041400Z 0414/0512 30004KT P6SM SKC
     FM050100 19003KT P6SM FEW250=



000
FTUS43 KLOT 041400 AAA
TAFRFD
TAF AMD
KRFD 041400Z 0414/0512 VRB03KT P6SM SKC
     FM041800 26005KT P6SM FEW045 SCT250
     FM050100 19003KT P6SM FEW250=



000
FTUS43 KLOT 041400 AAA
TAFGYY
TAF AMD
KGYY 041400Z 0414/0512 VRB03KT 5SM HZ SKC
     FM041500 VRB03KT P6SM SKC
     FM041900 06007KT P6SM FEW050 SCT250
     FM050100 13003KT P6SM FEW250=



000
FTUS43 KLOT 041400 AAA
TAFORD
TAF AMD
KORD 041400Z 0414/0518 30003KT P6SM SKC
     FM042000 10008KT P6SM FEW050 SCT250
     FM050100 19003KT P6SM FEW250=



000
FTUS43 KLOT 041400 AAA
TAFMDW
TAF AMD
KMDW 041400Z 0414/0512 30003KT P6SM SKC
     FM042000 09008KT P6SM FEW050 SCT250
     FM050100 19003KT P6SM FEW250=



000
FTUS43 KLOT 041400 AAA
TAFRFD
TAF AMD
KRFD 041400Z 0414/0512 VRB03KT P6SM SKC
     FM041800 26005KT P6SM FEW045 SCT250
     FM050100 19003KT P6SM FEW250=



000
FTUS43 KLOT 041400 AAA
TAFGYY
TAF AMD
KGYY 041400Z 0414/0512 VRB03KT 5SM HZ SKC
     FM041500 VRB03KT P6SM SKC
     FM041900 06007KT P6SM FEW050 SCT250
     FM050100 13003KT P6SM FEW250=



000
FTUS43 KLOT 041400 AAA
TAFGYY
TAF AMD
KGYY 041400Z 0414/0512 VRB03KT 5SM HZ SKC
     FM041500 VRB03KT P6SM SKC
     FM041900 06007KT P6SM FEW050 SCT250
     FM050100 13003KT P6SM FEW250=



000
FTUS43 KLOT 041128
TAFGYY
TAF
KGYY 041128Z 0412/0512 00000KT 5SM BR FEW250
     FM041400 VRB04KT P6SM FEW045 FEW250
     FM041900 05007KT P6SM FEW050 SCT250
     FM050100 13003KT P6SM FEW250=



000
FTUS43 KLOT 041128
TAFRFD
TAF
KRFD 041128Z 0412/0512 VRB03KT 6SM BR FEW250
     FM041500 26005KT P6SM FEW045 SCT250
     FM050100 19003KT P6SM FEW250=



000
FTUS43 KLOT 041128
TAFMDW
TAF
KMDW 041128Z 0412/0512 00000KT P6SM FEW250
     FM041400 28005KT P6SM FEW045 FEW250
     FM042100 12007KT P6SM FEW050 SCT250
     FM050100 19003KT P6SM FEW250=



000
FTUS43 KLOT 041128
TAFGYY
TAF
KGYY 041128Z 0412/0512 00000KT 5SM BR FEW250
     FM041400 VRB04KT P6SM FEW045 FEW250
     FM041900 05007KT P6SM FEW050 SCT250
     FM050100 13003KT P6SM FEW250=



000
FTUS43 KLOT 041128
TAFORD
TAF
KORD 041128Z 0412/0518 28005KT P6SM FEW045 FEW250
     FM042100 12007KT P6SM FEW050 SCT250
     FM050100 19003KT P6SM FEW250=



000
FTUS43 KLOT 041128
TAFDPA
TAF
KDPA 041128Z 0412/0512 VRB03KT 6SM BR FEW250
     FM041400 26005KT P6SM FEW045 FEW250
     FM050100 19003KT P6SM FEW250=



000
FTUS43 KLOT 041128
TAFRFD
TAF
KRFD 041128Z 0412/0512 VRB03KT 6SM BR FEW250
     FM041500 26005KT P6SM FEW045 SCT250
     FM050100 19003KT P6SM FEW250=



000
FTUS43 KLOT 041128
TAFDPA
TAF
KDPA 041128Z 0412/0512 VRB03KT 6SM BR FEW250
     FM041400 26005KT P6SM FEW045 FEW250
     FM050100 19003KT P6SM FEW250=



000
FTUS43 KLOT 041128
TAFMDW
TAF
KMDW 041128Z 0412/0512 00000KT P6SM FEW250
     FM041400 28005KT P6SM FEW045 FEW250
     FM042100 12007KT P6SM FEW050 SCT250
     FM050100 19003KT P6SM FEW250=



000
FTUS43 KLOT 041128
TAFORD
TAF
KORD 041128Z 0412/0518 28005KT P6SM FEW045 FEW250
     FM042100 12007KT P6SM FEW050 SCT250
     FM050100 19003KT P6SM FEW250=



000
FTUS43 KLOT 041128
TAFGYY
TAF
KGYY 041128Z 0412/0512 00000KT 5SM BR FEW250
     FM041400 VRB04KT P6SM FEW045 FEW250
     FM041900 05007KT P6SM FEW050 SCT250
     FM050100 13003KT P6SM FEW250=



000
FTUS43 KLOT 040849 AAA
TAFRFD
TAF AMD
KRFD 040849Z 0409/0506 00000KT P6SM FEW250
     FM041500 25005KT P6SM FEW045 SCT250
     FM050100 19003KT P6SM FEW250=



000
FTUS43 KLOT 040849 AAA
TAFORD
TAF AMD
KORD 040849Z 0409/0512 00000KT P6SM FEW250
     FM041500 28005KT P6SM FEW045 FEW250
     FM042100 12007KT P6SM FEW050 SCT250
     FM050100 19003KT P6SM FEW250=



000
FTUS43 KLOT 040849 AAA
TAFDPA
TAF AMD
KDPA 040849Z 0409/0506 00000KT P6SM FEW250
     FM041500 26005KT P6SM FEW045 FEW250
     FM050100 19003KT P6SM FEW250=



000
FTUS43 KLOT 040849 AAA
TAFGYY
TAF AMD
KGYY 040849Z 0409/0506 00000KT 3SM BR FEW007 FEW250
      TEMPO 0409/0412 2SM BR BKN007
     FM041500 VRB04KT P6SM FEW045 FEW250
     FM041900 05007KT P6SM FEW050 SCT250
     FM050100 13003KT P6SM FEW250=



000
FTUS43 KLOT 040849 AAA
TAFMDW
TAF AMD
KMDW 040849Z 0409/0506 00000KT P6SM FEW250
     FM041500 28005KT P6SM FEW045 FEW250
     FM042100 12007KT P6SM FEW050 SCT250
     FM050100 19003KT P6SM FEW250=



000
FTUS43 KLOT 040849 AAA
TAFGYY
TAF AMD
KGYY 040849Z 0409/0506 00000KT 3SM BR FEW007 FEW250
      TEMPO 0409/0412 2SM BR BKN007
     FM041500 VRB04KT P6SM FEW045 FEW250
     FM041900 05007KT P6SM FEW050 SCT250
     FM050100 13003KT P6SM FEW250=



000
FTUS43 KLOT 040528
TAFGYY
TAF
KGYY 040528Z 0406/0506 00000KT 5SM BR FEW250
     FM041500 VRB04KT P6SM FEW045 FEW250
     FM041900 05007KT P6SM FEW050 SCT250
     FM050100 13003KT P6SM FEW250=



000
FTUS43 KLOT 040528
TAFDPA
TAF
KDPA 040528Z 0406/0506 00000KT P6SM FEW250
     FM041500 26005KT P6SM FEW045 FEW250
     FM050100 19003KT P6SM FEW250=



000
FTUS43 KLOT 040528
TAFMDW
TAF
KMDW 040528Z 0406/0506 00000KT P6SM FEW250
     FM041500 28005KT P6SM FEW045 FEW250
     FM042100 12007KT P6SM FEW050 SCT250
     FM050100 19003KT P6SM FEW250=



000
FTUS43 KLOT 040528
TAFORD
TAF
KORD 040528Z 0406/0512 00000KT P6SM FEW250
     FM041500 28005KT P6SM FEW045 FEW250
     FM042100 12007KT P6SM FEW050 SCT250
     FM050100 19003KT P6SM FEW250=



000
FTUS43 KLOT 040528
TAFGYY
TAF
KGYY 040528Z 0406/0506 00000KT 5SM BR FEW250
     FM041500 VRB04KT P6SM FEW045 FEW250
     FM041900 05007KT P6SM FEW050 SCT250
     FM050100 13003KT P6SM FEW250=



000
FTUS43 KLOT 040528
TAFRFD
TAF
KRFD 040528Z 0406/0506 00000KT P6SM FEW250
     FM041500 25005KT P6SM FEW045 SCT250
     FM050100 19003KT P6SM FEW250=



000
FTUS43 KLOT 040300 AAA
TAFORD
TAF AMD
KORD 040300Z 0403/0506 14004KT P6SM FEW250
     FM040800 23004KT P6SM FEW250
     FM041700 26007KT P6SM SCT045
     FM050100 19005KT P6SM FEW050=



000
FTUS43 KLOT 040300 AAA
TAFGYY
TAF AMD
KGYY 040300Z 0403/0424 VRB03KT P6SM FEW250
     FM040800 23004KT P6SM FEW250
     FM041700 26006KT P6SM FEW045
     FM042000 VRB05KT P6SM FEW050=



000
FTUS43 KLOT 040300 AAA
TAFDPA
TAF AMD
KDPA 040300Z 0403/0424 14004KT P6SM FEW250
     FM040800 23004KT P6SM FEW250
     FM041700 26006KT P6SM SCT045=



000
FTUS43 KLOT 040300 AAA
TAFGYY
TAF AMD
KGYY 040300Z 0403/0424 VRB03KT P6SM FEW250
     FM040800 23004KT P6SM FEW250
     FM041700 26006KT P6SM FEW045
     FM042000 VRB05KT P6SM FEW050=



000
FTUS43 KLOT 040300 AAA
TAFRFD
TAF AMD
KRFD 040300Z 0403/0424 VRB03KT P6SM FEW250
     FM041700 25006KT P6SM SCT040=



000
FTUS43 KLOT 040300 AAA
TAFMDW
TAF AMD
KMDW 040300Z 0403/0424 13005KT P6SM FEW250
     FM040800 23004KT P6SM FEW250
     FM041700 26007KT P6SM SCT045=



000
FTUS43 KLOT 032331
TAFORD
TAF
KORD 032331Z 0400/0506 08008KT P6SM FEW045 SCT250
     FM040100 11003KT P6SM FEW250
     FM040800 23004KT P6SM FEW250
     FM041700 26007KT P6SM SCT045
     FM050100 19005KT P6SM FEW050=



000
FTUS43 KLOT 032331
TAFDPA
TAF
KDPA 032331Z 0400/0424 03004KT P6SM FEW050 SCT250
     FM040100 10003KT P6SM FEW250
     FM040800 23004KT P6SM FEW250
     FM041700 26006KT P6SM SCT045=



000
FTUS43 KLOT 032331
TAFMDW
TAF
KMDW 032331Z 0400/0424 09008KT P6SM FEW050 SCT250
     FM040100 12003KT P6SM FEW250
     FM040800 23004KT P6SM FEW250
     FM041700 26007KT P6SM SCT045=



000
FTUS43 KLOT 032331
TAFRFD
TAF
KRFD 032331Z 0400/0424 30005KT P6SM FEW045 SCT250
     FM040100 VRB03KT P6SM FEW250
     FM041700 25006KT P6SM SCT040=



000
FTUS43 KLOT 032331
TAFGYY
TAF
KGYY 032331Z 0400/0424 03007KT P6SM SCT250
     FM040100 VRB03KT P6SM FEW250
     FM040800 23004KT P6SM FEW250
     FM041700 26006KT P6SM FEW045
     FM042000 VRB05KT P6SM FEW050=



000
FTUS43 KLOT 032331
TAFGYY
TAF
KGYY 032331Z 0400/0424 03007KT P6SM SCT250
     FM040100 VRB03KT P6SM FEW250
     FM040800 23004KT P6SM FEW250
     FM041700 26006KT P6SM FEW045
     FM042000 VRB05KT P6SM FEW050=



000
FTUS43 KLOT 032158 AAB
TAFMDW
TAF AMD
KMDW 032158Z 0322/0418 07009KT P6SM FEW050 SCT250
     FM040100 10003KT P6SM FEW250
     FM040800 23004KT P6SM FEW250
     FM041700 27005KT P6SM SCT040=



000
FTUS43 KLOT 032158 AAB
TAFGYY
TAF AMD
KGYY 032158Z 0322/0418 02008KT P6SM FEW050 SCT250
     FM040100 VRB03KT P6SM FEW250
     FM040800 23004KT P6SM FEW250
     FM041700 27006KT P6SM FEW040=



000
FTUS43 KLOT 032158 AAB
TAFORD
TAF AMD
KORD 032158Z 0322/0424 07009KT P6SM FEW045 SCT250
     FM040100 10003KT P6SM FEW250
     FM040800 23004KT P6SM FEW250
     FM041700 27005KT P6SM SCT040=



000
FTUS43 KLOT 032158 AAB
TAFORD
TAF AMD
KORD 032158Z 0322/0424 07009KT P6SM FEW045 SCT250
     FM040100 10003KT P6SM FEW250
     FM040800 23004KT P6SM FEW250
     FM041700 27005KT P6SM SCT040=



000
FTUS43 KLOT 032158 AAB
TAFMDW
TAF AMD
KMDW 032158Z 0322/0418 07009KT P6SM FEW050 SCT250
     FM040100 10003KT P6SM FEW250
     FM040800 23004KT P6SM FEW250
     FM041700 27005KT P6SM SCT040=



000
FTUS43 KLOT 032158 AAB
TAFGYY
TAF AMD
KGYY 032158Z 0322/0418 02008KT P6SM FEW050 SCT250
     FM040100 VRB03KT P6SM FEW250
     FM040800 23004KT P6SM FEW250
     FM041700 27006KT P6SM FEW040=



000
FTUS43 KLOT 032158 AAB
TAFGYY
TAF AMD
KGYY 032158Z 0322/0418 02008KT P6SM FEW050 SCT250
     FM040100 VRB03KT P6SM FEW250
     FM040800 23004KT P6SM FEW250
     FM041700 27006KT P6SM FEW040=



000
FTUS43 KLOT 032158 AAB
TAFDPA
TAF AMD
KDPA 032158Z 0322/0418 06007KT P6SM SCT050 SCT250
     FM040100 10003KT P6SM FEW250
     FM040800 23004KT P6SM FEW250
     FM041700 27005KT P6SM SCT040=



000
FTUS43 KLOT 032158 AAB
TAFRFD
TAF AMD
KRFD 032158Z 0322/0418 VRB04KT P6SM FEW045 SCT250
     FM040100 25004KT P6SM FEW250
     FM041700 29005KT P6SM SCT040=



000
FTUS43 KLOT 031911 AAA
TAFORD
TAF AMD
KORD 031911Z 0319/0424 07009KT P6SM FEW050 SCT250
     FM040100 10003KT P6SM FEW250
     FM040800 23004KT P6SM FEW250
     FM041700 27005KT P6SM SCT040=



000
FTUS43 KLOT 031911 AAA
TAFDPA
TAF AMD
KDPA 031911Z 0319/0418 06006KT P6SM SCT050 SCT250
     FM040100 10003KT P6SM FEW250
     FM040800 23004KT P6SM FEW250
     FM041700 27005KT P6SM SCT040=



000
FTUS43 KLOT 031911 AAA
TAFGYY
TAF AMD
KGYY 031911Z 0319/0418 02008KT P6SM FEW050 SCT250
     FM040100 VRB03KT P6SM FEW250
     FM040800 23004KT P6SM FEW250
     FM041700 27006KT P6SM FEW040=



000
FTUS43 KLOT 031911 AAA
TAFRFD
TAF AMD
KRFD 031911Z 0319/0418 VRB03KT P6SM SCT040 SCT250
     FM040100 25004KT P6SM FEW250
     FM041700 29005KT P6SM SCT040=



000
FTUS43 KLOT 031911 AAA
TAFMDW
TAF AMD
KMDW 031911Z 0319/0418 07009KT P6SM FEW050 SCT250
     FM040100 10003KT P6SM FEW250
     FM040800 23004KT P6SM FEW250
     FM041700 27005KT P6SM SCT040=



000
FTUS43 KLOT 031911 AAA
TAFGYY
TAF AMD
KGYY 031911Z 0319/0418 02008KT P6SM FEW050 SCT250
     FM040100 VRB03KT P6SM FEW250
     FM040800 23004KT P6SM FEW250
     FM041700 27006KT P6SM FEW040=



000
FTUS43 KLOT 031739
TAFORD
TAF
KORD 031739Z 0318/0424 08006KT P6SM FEW035 OVC250
     FM032000 06009KT P6SM FEW035 SCT250
     FM040100 10003KT P6SM FEW250
     FM040800 23004KT P6SM FEW250
     FM041700 27005KT P6SM SCT040=



000
FTUS43 KLOT 031739
TAFRFD
TAF
KRFD 031739Z 0318/0418 VRB03KT P6SM SCT035 SCT250
     FM040100 25004KT P6SM FEW250
     FM041700 29005KT P6SM SCT040=



000
FTUS43 KLOT 031739
TAFGYY
TAF
KGYY 031739Z 0318/0418 02010KT P6SM FEW035 SCT250
     FM040100 VRB03KT P6SM FEW250
     FM040800 23004KT P6SM FEW250
     FM041700 27006KT P6SM FEW040=



000
FTUS43 KLOT 031739
TAFDPA
TAF
KDPA 031739Z 0318/0418 06006KT P6SM SCT035 SCT250
     FM040100 10003KT P6SM FEW250
     FM040800 23004KT P6SM FEW250
     FM041700 27005KT P6SM SCT040=



000
FTUS43 KLOT 031739
TAFMDW
TAF
KMDW 031739Z 0318/0418 07007KT P6SM FEW035 OVC250
     FM031900 07009KT P6SM FEW035 SCT250
     FM040100 10003KT P6SM FEW250
     FM040800 23004KT P6SM FEW250
     FM041700 27005KT P6SM SCT040=



000
FTUS43 KLOT 031739
TAFGYY
TAF
KGYY 031739Z 0318/0418 02010KT P6SM FEW035 SCT250
     FM040100 VRB03KT P6SM FEW250
     FM040800 23004KT P6SM FEW250
     FM041700 27006KT P6SM FEW040=



000
FTUS43 KLOT 031558 AAB
TAFDPA
TAF AMD
KDPA 031558Z 0316/0412 VRB06KT P6SM FEW035 SCT250
     FM031800 06006KT P6SM SCT035 SCT250
     FM040100 10003KT P6SM FEW250
     FM040800 23004KT P6SM FEW250=



000
FTUS43 KLOT 031558 AAB
TAFGYY
TAF AMD
KGYY 031558Z 0316/0412 04007KT P6SM OVC250
     FM031700 02010KT P6SM SCT250
     FM040100 VRB03KT P6SM FEW250
     FM040800 23004KT P6SM FEW250=



000
FTUS43 KLOT 031558 AAB
TAFMDW
TAF AMD
KMDW 031558Z 0316/0412 06007KT P6SM OVC250
     FM031900 07009KT P6SM FEW035 SCT250
     FM040100 10003KT P6SM FEW250
     FM040800 23004KT P6SM FEW250=



000
FTUS43 KLOT 031558 AAB
TAFGYY
TAF AMD
KGYY 031558Z 0316/0412 04007KT P6SM OVC250
     FM031700 02010KT P6SM SCT250
     FM040100 VRB03KT P6SM FEW250
     FM040800 23004KT P6SM FEW250=



000
FTUS43 KLOT 031558 AAB
TAFRFD
TAF AMD
KRFD 031558Z 0316/0412 VRB03KT P6SM SCT035 SCT250
     FM040100 25004KT P6SM FEW250=



000
FTUS43 KLOT 031558 AAB
TAFMDW
TAF AMD
KMDW 031558Z 0316/0412 06007KT P6SM OVC250
     FM031900 07009KT P6SM FEW035 SCT250
     FM040100 10003KT P6SM FEW250
     FM040800 23004KT P6SM FEW250=



000
FTUS43 KLOT 031558 AAB
TAFRFD
TAF AMD
KRFD 031558Z 0316/0412 VRB03KT P6SM SCT035 SCT250
     FM040100 25004KT P6SM FEW250=



000
FTUS43 KLOT 031558 AAB
TAFGYY
TAF AMD
KGYY 031558Z 0316/0412 04007KT P6SM OVC250
     FM031700 02010KT P6SM SCT250
     FM040100 VRB03KT P6SM FEW250
     FM040800 23004KT P6SM FEW250=



000
FTUS43 KLOT 031558 AAB
TAFORD
TAF AMD
KORD 031558Z 0316/0418 06006KT P6SM OVC250
     FM032000 06009KT P6SM FEW035 SCT250
     FM040100 10003KT P6SM FEW250
     FM040800 23004KT P6SM FEW250=



000
FTUS43 KLOT 031558 AAB
TAFDPA
TAF AMD
KDPA 031558Z 0316/0412 VRB06KT P6SM FEW035 SCT250
     FM031800 06006KT P6SM SCT035 SCT250
     FM040100 10003KT P6SM FEW250
     FM040800 23004KT P6SM FEW250=



000
FTUS43 KLOT 031558 AAB
TAFORD
TAF AMD
KORD 031558Z 0316/0418 06006KT P6SM OVC250
     FM032000 06009KT P6SM FEW035 SCT250
     FM040100 10003KT P6SM FEW250
     FM040800 23004KT P6SM FEW250=



000
FTUS43 KLOT 031401 AAA
TAFGYY
TAF AMD
KGYY 031401Z 0314/0412 08007KT P6SM OVC250
     FM031700 02010KT P6SM SCT250
     FM040100 VRB03KT P6SM FEW250
     FM040800 23004KT P6SM FEW250=



000
FTUS43 KLOT 031401 AAA
TAFORD
TAF AMD
KORD 031401Z 0314/0418 08006KT P6SM OVC250
     FM031800 06009KT P6SM FEW035 SCT250
     FM040100 10003KT P6SM FEW250
     FM040800 23004KT P6SM FEW250=



000
FTUS43 KLOT 031401 AAA
TAFGYY
TAF AMD
KGYY 031401Z 0314/0412 08007KT P6SM OVC250
     FM031700 02010KT P6SM SCT250
     FM040100 VRB03KT P6SM FEW250
     FM040800 23004KT P6SM FEW250=



000
FTUS43 KLOT 031401 AAA
TAFRFD
TAF AMD
KRFD 031401Z 0314/0412 07005KT P6SM OVC250
     FM031500 VRB03KT P6SM SCT035 SCT250
     FM040100 25004KT P6SM FEW250=



000
FTUS43 KLOT 031401 AAA
TAFMDW
TAF AMD
KMDW 031401Z 0314/0412 08007KT P6SM OVC250
     FM031800 07009KT P6SM FEW035 SCT250
     FM040100 10003KT P6SM FEW250
     FM040800 23004KT P6SM FEW250=



000
FTUS43 KLOT 031401 AAA
TAFDPA
TAF AMD
KDPA 031401Z 0314/0412 07007KT P6SM OVC250
     FM031600 08007KT P6SM SCT035 SCT250
     FM040100 10003KT P6SM FEW250
     FM040800 23004KT P6SM FEW250=



000
FTUS43 KLOT 031401 AAA
TAFGYY
TAF AMD
KGYY 031401Z 0314/0412 08007KT P6SM OVC250
     FM031700 02010KT P6SM SCT250
     FM040100 VRB03KT P6SM FEW250
     FM040800 23004KT P6SM FEW250=



000
FTUS43 KLOT 031401 AAA
TAFMDW
TAF AMD
KMDW 031401Z 0314/0412 08007KT P6SM OVC250
     FM031800 07009KT P6SM FEW035 SCT250
     FM040100 10003KT P6SM FEW250
     FM040800 23004KT P6SM FEW250=



000
FTUS43 KLOT 031401 AAA
TAFGYY
TAF AMD
KGYY 031401Z 0314/0412 08007KT P6SM OVC250
     FM031700 02010KT P6SM SCT250
     FM040100 VRB03KT P6SM FEW250
     FM040800 23004KT P6SM FEW250=



000
FTUS43 KLOT 031401 AAA
TAFRFD
TAF AMD
KRFD 031401Z 0314/0412 07005KT P6SM OVC250
     FM031500 VRB03KT P6SM SCT035 SCT250
     FM040100 25004KT P6SM FEW250=



000
FTUS43 KLOT 031401 AAA
TAFORD
TAF AMD
KORD 031401Z 0314/0418 08006KT P6SM OVC250
     FM031800 06009KT P6SM FEW035 SCT250
     FM040100 10003KT P6SM FEW250
     FM040800 23004KT P6SM FEW250=



000
FTUS43 KLOT 031401 AAA
TAFDPA
TAF AMD
KDPA 031401Z 0314/0412 07007KT P6SM OVC250
     FM031600 08007KT P6SM SCT035 SCT250
     FM040100 10003KT P6SM FEW250
     FM040800 23004KT P6SM FEW250=



000
FTUS43 KLOT 031122
TAFRFD
TAF
KRFD 031122Z 0312/0412 07005KT P6SM OVC250
     FM031500 VRB03KT P6SM SCT035 SCT250
     FM040100 25004KT P6SM FEW250=



000
FTUS43 KLOT 031122
TAFDPA
TAF
KDPA 031122Z 0312/0412 05007KT P6SM OVC250
     FM031600 08007KT P6SM SCT035 SCT250
     FM040100 10003KT P6SM FEW250
     FM040800 23004KT P6SM FEW250=



000
FTUS43 KLOT 031122
TAFORD
TAF
KORD 031122Z 0312/0418 04006KT P6SM OVC250
     FM031800 06009KT P6SM FEW035 SCT250
     FM040100 10003KT P6SM FEW250
     FM040800 23004KT P6SM FEW250=



000
FTUS43 KLOT 031122
TAFMDW
TAF
KMDW 031122Z 0312/0412 04007KT P6SM OVC250
     FM031800 07009KT P6SM FEW035 SCT250
     FM040100 10003KT P6SM FEW250
     FM040800 23004KT P6SM FEW250=



000
FTUS43 KLOT 031122
TAFGYY
TAF
KGYY 031122Z 0312/0412 04007KT P6SM OVC250
     FM031700 02010KT P6SM SCT250
     FM040100 VRB03KT P6SM FEW250
     FM040800 23004KT P6SM FEW250=



000
FTUS43 KLOT 031122
TAFMDW
TAF
KMDW 031122Z 0312/0412 04007KT P6SM OVC250
     FM031800 07009KT P6SM FEW035 SCT250
     FM040100 10003KT P6SM FEW250
     FM040800 23004KT P6SM FEW250=



000
FTUS43 KLOT 031122
TAFDPA
TAF
KDPA 031122Z 0312/0412 05007KT P6SM OVC250
     FM031600 08007KT P6SM SCT035 SCT250
     FM040100 10003KT P6SM FEW250
     FM040800 23004KT P6SM FEW250=



000
FTUS43 KLOT 031122
TAFGYY
TAF
KGYY 031122Z 0312/0412 04007KT P6SM OVC250
     FM031700 02010KT P6SM SCT250
     FM040100 VRB03KT P6SM FEW250
     FM040800 23004KT P6SM FEW250=



000
FTUS43 KLOT 031122
TAFGYY
TAF
KGYY 031122Z 0312/0412 04007KT P6SM OVC250
     FM031700 02010KT P6SM SCT250
     FM040100 VRB03KT P6SM FEW250
     FM040800 23004KT P6SM FEW250=



000
FTUS43 KLOT 031122
TAFRFD
TAF
KRFD 031122Z 0312/0412 07005KT P6SM OVC250
     FM031500 VRB03KT P6SM SCT035 SCT250
     FM040100 25004KT P6SM FEW250=



000
FTUS43 KLOT 031122
TAFGYY
TAF
KGYY 031122Z 0312/0412 04007KT P6SM OVC250
     FM031700 02010KT P6SM SCT250
     FM040100 VRB03KT P6SM FEW250
     FM040800 23004KT P6SM FEW250=



000
FTUS43 KLOT 031122
TAFORD
TAF
KORD 031122Z 0312/0418 04006KT P6SM OVC250
     FM031800 06009KT P6SM FEW035 SCT250
     FM040100 10003KT P6SM FEW250
     FM040800 23004KT P6SM FEW250=



000
FTUS43 KLOT 030858 AAA
TAFGYY
TAF AMD
KGYY 030858Z 0309/0406 04007KT P6SM OVC250
     FM031700 02010KT P6SM SCT250
     FM040100 VRB03KT P6SM FEW250=



000
FTUS43 KLOT 030858 AAA
TAFMDW
TAF AMD
KMDW 030858Z 0309/0406 04007KT P6SM OVC250
     FM031800 07009KT P6SM FEW035 SCT250
     FM040100 10003KT P6SM FEW250=



000
FTUS43 KLOT 030858 AAA
TAFGYY
TAF AMD
KGYY 030858Z 0309/0406 04007KT P6SM OVC250
     FM031700 02010KT P6SM SCT250
     FM040100 VRB03KT P6SM FEW250=



000
FTUS43 KLOT 030858 AAA
TAFDPA
TAF AMD
KDPA 030858Z 0309/0406 05007KT P6SM OVC250
     FM031600 08007KT P6SM SCT035 SCT250
     FM040100 10003KT P6SM FEW250=



000
FTUS43 KLOT 030858 AAA
TAFORD
TAF AMD
KORD 030858Z 0309/0412 04006KT P6SM OVC250
     FM031800 06009KT P6SM FEW035 SCT250
     FM040100 10003KT P6SM FEW250
     FM040800 23004KT P6SM FEW250=



000
FTUS43 KLOT 030858 AAA
TAFRFD
TAF AMD
KRFD 030858Z 0309/0406 07005KT P6SM OVC250
     FM031500 VRB03KT P6SM SCT035 SCT250
     FM040100 27004KT P6SM FEW250=



000
FTUS43 KLOT 030858 AAA
TAFMDW
TAF AMD
KMDW 030858Z 0309/0406 04007KT P6SM OVC250
     FM031800 07009KT P6SM FEW035 SCT250
     FM040100 10003KT P6SM FEW250=



000
FTUS43 KLOT 030858 AAA
TAFDPA
TAF AMD
KDPA 030858Z 0309/0406 05007KT P6SM OVC250
     FM031600 08007KT P6SM SCT035 SCT250
     FM040100 10003KT P6SM FEW250=



000
FTUS43 KLOT 030858 AAA
TAFORD
TAF AMD
KORD 030858Z 0309/0412 04006KT P6SM OVC250
     FM031800 06009KT P6SM FEW035 SCT250
     FM040100 10003KT P6SM FEW250
     FM040800 23004KT P6SM FEW250=



000
FTUS43 KLOT 030858 AAA
TAFGYY
TAF AMD
KGYY 030858Z 0309/0406 04007KT P6SM OVC250
     FM031700 02010KT P6SM SCT250
     FM040100 VRB03KT P6SM FEW250=



000
FTUS43 KLOT 030858 AAA
TAFGYY
TAF AMD
KGYY 030858Z 0309/0406 04007KT P6SM OVC250
     FM031700 02010KT P6SM SCT250
     FM040100 VRB03KT P6SM FEW250=



000
FTUS43 KLOT 030858 AAA
TAFRFD
TAF AMD
KRFD 030858Z 0309/0406 07005KT P6SM OVC250
     FM031500 VRB03KT P6SM SCT035 SCT250
     FM040100 27004KT P6SM FEW250=



    US Dept of Commerce
    National Oceanic and Atmospheric Administration
    National Weather Service
    1325 East West Highway
    Silver Spring, MD 20910
    Page Author: NWS Internet Services Team
Disclaimer
Information Quality
Credits
Glossary
Privacy Policy
Freedom of Information Act (FOIA)
About Us
Career Opportunities